Terminal Aerodrome Forecast
Issued by NWS

Home | Current Version | Previous Version | Text Only | Print | Product List | Glossary Off
Versions: 1 2 3 4 5 6 7 8 9 10 11 12 13 14 15 16 17 18

000
FTUS43 KBIS 242300 RRA
TAFJMS
TAF
KJMS 242341Z 2500/2524 18011KT P6SM FEW005 OVC050
     FM250200 22009KT P6SM SCT010 BKN020 OVC050
     FM250600 26007KT P6SM BKN010 OVC150
     FM251100 31007KT P6SM BKN008 OVC150=

USA.gov is the U.S. government's official web portal to all federal, state and local government web resources and services.